sensor_id;sensor_type;location;lat;lon;timestamp;P1;durP1;ratioP1;P2;durP2;ratioP2
9264;SDS011;4669;49.594;10.958;2022-07-23T00:02:32;10.73;;;6.65;;
9264;SDS011;4669;49.594;10.958;2022-07-23T00:07:34;9.68;;;7.55;;
9264;SDS011;4669;49.594;10.958;2022-07-23T00:12:37;7.93;;;7.10;;
9264;SDS011;4669;49.594;10.958;2022-07-23T00:17:40;9.93;;;6.90;;
9264;SDS011;4669;49.594;10.958;2022-07-23T00:22:46;13.95;;;7.05;;
9264;SDS011;4669;49.594;10.958;2022-07-23T00:27:48;11.05;;;7.53;;
9264;SDS011;4669;49.594;10.958;2022-07-23T00:32:52;8.82;;;7.25;;
9264;SDS011;4669;49.594;10.958;2022-07-23T00:37:56;8.55;;;7.28;;
9264;SDS011;4669;49.594;10.958;2022-07-23T00:42:58;12.10;;;7.13;;
9264;SDS011;4669;49.594;10.958;2022-07-23T00:48:02;7.70;;;7.00;;
9264;SDS011;4669;49.594;10.958;2022-07-23T00:53:04;9.98;;;7.43;;
9264;SDS011;4669;49.594;10.958;2022-07-23T00:58:08;8.10;;;7.32;;
9264;SDS011;4669;49.594;10.958;2022-07-23T01:03:12;8.52;;;7.57;;
9264;SDS011;4669;49.594;10.958;2022-07-23T01:08:14;8.15;;;7.45;;
9264;SDS011;4669;49.594;10.958;2022-07-23T01:13:17;8.43;;;7.40;;
9264;SDS011;4669;49.594;10.958;2022-07-23T01:18:21;9.55;;;7.60;;
9264;SDS011;4669;49.594;10.958;2022-07-23T01:23:24;9.68;;;8.65;;
9264;SDS011;4669;49.594;10.958;2022-07-23T01:28:30;9.32;;;8.43;;
9264;SDS011;4669;49.594;10.958;2022-07-23T01:33:33;9.50;;;8.55;;
9264;SDS011;4669;49.594;10.958;2022-07-23T01:38:37;10.57;;;8.45;;
9264;SDS011;4669;49.594;10.958;2022-07-23T01:43:39;10.75;;;8.38;;
9264;SDS011;4669;49.594;10.958;2022-07-23T01:48:42;8.88;;;7.97;;
9264;SDS011;4669;49.594;10.958;2022-07-23T01:54:20;9.05;;;8.15;;
9264;SDS011;4669;49.594;10.958;2022-07-23T01:59:22;9.52;;;7.72;;
9264;SDS011;4669;49.594;10.958;2022-07-23T02:04:25;8.38;;;7.35;;
9264;SDS011;4669;49.594;10.958;2022-07-23T02:09:30;9.68;;;7.45;;
9264;SDS011;4669;49.594;10.958;2022-07-23T02:14:32;10.07;;;8.55;;
9264;SDS011;4669;49.594;10.958;2022-07-23T02:19:36;10.68;;;7.03;;
9264;SDS011;4669;49.594;10.958;2022-07-23T02:24:39;12.75;;;8.65;;
9264;SDS011;4669;49.594;10.958;2022-07-23T02:29:41;12.07;;;8.18;;
9264;SDS011;4669;49.594;10.958;2022-07-23T02:34:43;10.48;;;8.07;;
9264;SDS011;4669;49.594;10.958;2022-07-23T02:39:47;9.20;;;8.38;;
9264;SDS011;4669;49.594;10.958;2022-07-23T02:44:49;10.70;;;9.15;;
9264;SDS011;4669;49.594;10.958;2022-07-23T02:49:51;10.02;;;8.80;;
9264;SDS011;4669;49.594;10.958;2022-07-23T02:54:55;9.32;;;8.43;;
9264;SDS011;4669;49.594;10.958;2022-07-23T02:59:57;9.95;;;8.93;;
9264;SDS011;4669;49.594;10.958;2022-07-23T03:04:59;10.48;;;8.63;;
9264;SDS011;4669;49.594;10.958;2022-07-23T03:10:02;10.68;;;9.45;;
9264;SDS011;4669;49.594;10.958;2022-07-23T03:15:05;10.45;;;9.20;;
9264;SDS011;4669;49.594;10.958;2022-07-23T03:20:08;12.38;;;9.00;;
9264;SDS011;4669;49.594;10.958;2022-07-23T03:25:14;11.93;;;9.73;;
9264;SDS011;4669;49.594;10.958;2022-07-23T03:30:16;9.93;;;9.07;;
9264;SDS011;4669;49.594;10.958;2022-07-23T03:35:18;10.82;;;9.63;;
9264;SDS011;4669;49.594;10.958;2022-07-23T03:40:35;10.02;;;9.13;;
9264;SDS011;4669;49.594;10.958;2022-07-23T03:45:37;10.57;;;9.60;;
9264;SDS011;4669;49.594;10.958;2022-07-23T03:50:41;12.27;;;9.85;;
9264;SDS011;4669;49.594;10.958;2022-07-23T03:55:46;10.40;;;9.40;;
9264;SDS011;4669;49.594;10.958;2022-07-23T04:00:48;10.88;;;9.38;;
9264;SDS011;4669;49.594;10.958;2022-07-23T04:05:50;11.15;;;10.05;;
9264;SDS011;4669;49.594;10.958;2022-07-23T04:10:53;10.35;;;9.32;;
9264;SDS011;4669;49.594;10.958;2022-07-23T04:15:56;12.07;;;10.40;;
9264;SDS011;4669;49.594;10.958;2022-07-23T04:20:58;10.30;;;9.40;;
9264;SDS011;4669;49.594;10.958;2022-07-23T04:26:02;11.93;;;10.25;;
9264;SDS011;4669;49.594;10.958;2022-07-23T04:31:05;12.18;;;10.68;;
9264;SDS011;4669;49.594;10.958;2022-07-23T04:36:09;12.02;;;10.32;;
9264;SDS011;4669;49.594;10.958;2022-07-23T04:41:13;10.55;;;9.45;;
9264;SDS011;4669;49.594;10.958;2022-07-23T04:46:15;13.27;;;9.88;;
9264;SDS011;4669;49.594;10.958;2022-07-23T04:51:21;10.50;;;9.40;;
9264;SDS011;4669;49.594;10.958;2022-07-23T04:56:25;10.70;;;9.70;;
9264;SDS011;4669;49.594;10.958;2022-07-23T05:01:27;10.40;;;9.25;;
9264;SDS011;4669;49.594;10.958;2022-07-23T05:06:29;11.10;;;9.60;;
9264;SDS011;4669;49.594;10.958;2022-07-23T05:11:32;11.32;;;9.48;;
9264;SDS011;4669;49.594;10.958;2022-07-23T05:16:34;14.57;;;10.23;;
9264;SDS011;4669;49.594;10.958;2022-07-23T05:21:42;10.88;;;9.63;;
9264;SDS011;4669;49.594;10.958;2022-07-23T05:26:46;9.30;;;8.43;;
9264;SDS011;4669;49.594;10.958;2022-07-23T05:31:48;10.95;;;9.68;;
9264;SDS011;4669;49.594;10.958;2022-07-23T05:36:51;10.43;;;8.35;;
9264;SDS011;4669;49.594;10.958;2022-07-23T05:41:55;9.10;;;8.20;;
9264;SDS011;4669;49.594;10.958;2022-07-23T05:46:57;10.43;;;9.00;;
9264;SDS011;4669;49.594;10.958;2022-07-23T05:52:03;12.85;;;8.45;;
9264;SDS011;4669;49.594;10.958;2022-07-23T05:57:24;8.88;;;7.55;;
9264;SDS011;4669;49.594;10.958;2022-07-23T06:02:26;9.80;;;8.32;;
9264;SDS011;4669;49.594;10.958;2022-07-23T06:07:28;13.38;;;8.85;;
9264;SDS011;4669;49.594;10.958;2022-07-23T06:12:32;8.13;;;7.35;;
9264;SDS011;4669;49.594;10.958;2022-07-23T06:17:35;7.40;;;6.57;;
9264;SDS011;4669;49.594;10.958;2022-07-23T06:22:39;7.43;;;6.10;;
9264;SDS011;4669;49.594;10.958;2022-07-23T06:27:42;7.05;;;6.35;;
9264;SDS011;4669;49.594;10.958;2022-07-23T06:32:46;7.13;;;5.18;;
9264;SDS011;4669;49.594;10.958;2022-07-23T06:37:49;6.75;;;5.60;;
9264;SDS011;4669;49.594;10.958;2022-07-23T06:42:52;6.20;;;5.68;;
9264;SDS011;4669;49.594;10.958;2022-07-23T06:47:56;6.28;;;5.65;;
9264;SDS011;4669;49.594;10.958;2022-07-23T06:52:59;6.70;;;6.10;;
9264;SDS011;4669;49.594;10.958;2022-07-23T06:58:02;8.80;;;6.32;;
9264;SDS011;4669;49.594;10.958;2022-07-23T07:03:04;6.78;;;6.00;;
9264;SDS011;4669;49.594;10.958;2022-07-23T07:08:06;14.80;;;7.18;;
9264;SDS011;4669;49.594;10.958;2022-07-23T07:13:10;8.55;;;6.38;;
9264;SDS011;4669;49.594;10.958;2022-07-23T07:18:12;8.15;;;5.82;;
9264;SDS011;4669;49.594;10.958;2022-07-23T07:23:14;6.47;;;5.80;;
9264;SDS011;4669;49.594;10.958;2022-07-23T07:28:17;8.02;;;6.80;;
9264;SDS011;4669;49.594;10.958;2022-07-23T07:33:19;9.35;;;6.82;;
9264;SDS011;4669;49.594;10.958;2022-07-23T07:38:22;6.47;;;5.70;;
9264;SDS011;4669;49.594;10.958;2022-07-23T07:43:25;10.25;;;8.05;;
9264;SDS011;4669;49.594;10.958;2022-07-23T07:48:27;7.40;;;6.70;;
9264;SDS011;4669;49.594;10.958;2022-07-23T07:53:29;7.65;;;6.95;;
9264;SDS011;4669;49.594;10.958;2022-07-23T07:58:32;10.68;;;7.22;;
9264;SDS011;4669;49.594;10.958;2022-07-23T08:03:34;7.53;;;6.82;;
9264;SDS011;4669;49.594;10.958;2022-07-23T08:08:36;7.18;;;6.25;;
9264;SDS011;4669;49.594;10.958;2022-07-23T08:13:40;6.32;;;5.72;;
9264;SDS011;4669;49.594;10.958;2022-07-23T08:18:44;5.50;;;5.05;;
9264;SDS011;4669;49.594;10.958;2022-07-23T08:23:46;14.57;;;5.75;;
9264;SDS011;4669;49.594;10.958;2022-07-23T08:28:50;8.10;;;5.95;;
9264;SDS011;4669;49.594;10.958;2022-07-23T08:33:52;7.68;;;5.72;;
9264;SDS011;4669;49.594;10.958;2022-07-23T08:38:55;6.95;;;5.75;;
9264;SDS011;4669;49.594;10.958;2022-07-23T08:43:58;8.20;;;7.38;;
9264;SDS011;4669;49.594;10.958;2022-07-23T08:49:01;9.90;;;8.95;;
9264;SDS011;4669;49.594;10.958;2022-07-23T08:54:03;6.43;;;5.75;;
9264;SDS011;4669;49.594;10.958;2022-07-23T08:59:07;9.98;;;6.63;;
9264;SDS011;4669;49.594;10.958;2022-07-23T09:04:09;7.13;;;6.43;;
9264;SDS011;4669;49.594;10.958;2022-07-23T09:09:17;7.03;;;6.43;;
9264;SDS011;4669;49.594;10.958;2022-07-23T09:14:23;7.10;;;6.38;;
9264;SDS011;4669;49.594;10.958;2022-07-23T09:19:38;6.60;;;6.00;;
9264;SDS011;4669;49.594;10.958;2022-07-23T09:24:41;7.93;;;7.13;;
9264;SDS011;4669;49.594;10.958;2022-07-23T09:30:06;8.50;;;7.78;;
9264;SDS011;4669;49.594;10.958;2022-07-23T09:35:09;8.70;;;6.70;;
9264;SDS011;4669;49.594;10.958;2022-07-23T09:40:12;8.02;;;7.28;;
9264;SDS011;4669;49.594;10.958;2022-07-23T09:45:19;8.38;;;7.57;;
9264;SDS011;4669;49.594;10.958;2022-07-23T09:50:21;9.07;;;8.18;;
9264;SDS011;4669;49.594;10.958;2022-07-23T09:55:27;8.80;;;7.30;;
9264;SDS011;4669;49.594;10.958;2022-07-23T10:00:37;9.18;;;7.68;;
9264;SDS011;4669;49.594;10.958;2022-07-23T10:05:39;7.90;;;7.20;;
9264;SDS011;4669;49.594;10.958;2022-07-23T10:11:02;8.88;;;7.22;;
9264;SDS011;4669;49.594;10.958;2022-07-23T10:16:36;8.13;;;7.32;;
9264;SDS011;4669;49.594;10.958;2022-07-23T10:21:40;8.10;;;7.40;;
9264;SDS011;4669;49.594;10.958;2022-07-23T10:26:50;7.38;;;6.68;;
9264;SDS011;4669;49.594;10.958;2022-07-23T10:32:02;10.23;;;7.30;;
9264;SDS011;4669;49.594;10.958;2022-07-23T10:37:12;7.80;;;7.03;;
9264;SDS011;4669;49.594;10.958;2022-07-23T10:42:19;8.48;;;6.63;;
9264;SDS011;4669;49.594;10.958;2022-07-23T10:47:25;8.90;;;7.18;;
9264;SDS011;4669;49.594;10.958;2022-07-23T10:52:41;8.90;;;7.43;;
9264;SDS011;4669;49.594;10.958;2022-07-23T10:58:04;8.15;;;6.82;;
9264;SDS011;4669;49.594;10.958;2022-07-23T11:08:35;9.35;;;6.88;;
9264;SDS011;4669;49.594;10.958;2022-07-23T11:13:41;7.90;;;7.20;;
9264;SDS011;4669;49.594;10.958;2022-07-23T11:19:06;8.07;;;7.22;;
9264;SDS011;4669;49.594;10.958;2022-07-23T11:24:11;8.07;;;7.25;;
9264;SDS011;4669;49.594;10.958;2022-07-23T11:34:54;7.80;;;6.95;;
9264;SDS011;4669;49.594;10.958;2022-07-23T11:39:58;8.00;;;7.22;;
9264;SDS011;4669;49.594;10.958;2022-07-23T11:45:00;9.52;;;8.18;;
9264;SDS011;4669;49.594;10.958;2022-07-23T11:50:03;10.35;;;7.50;;
9264;SDS011;4669;49.594;10.958;2022-07-23T11:55:10;18.27;;;11.27;;
9264;SDS011;4669;49.594;10.958;2022-07-23T12:00:13;14.57;;;7.28;;
9264;SDS011;4669;49.594;10.958;2022-07-23T12:05:17;7.18;;;6.45;;
9264;SDS011;4669;49.594;10.958;2022-07-23T12:10:23;7.75;;;6.93;;
9264;SDS011;4669;49.594;10.958;2022-07-23T12:15:29;9.88;;;7.70;;
9264;SDS011;4669;49.594;10.958;2022-07-23T12:20:34;7.50;;;6.80;;
9264;SDS011;4669;49.594;10.958;2022-07-23T12:25:40;8.57;;;7.78;;
9264;SDS011;4669;49.594;10.958;2022-07-23T12:30:45;8.10;;;7.35;;
9264;SDS011;4669;49.594;10.958;2022-07-23T12:35:48;7.32;;;6.63;;
9264;SDS011;4669;49.594;10.958;2022-07-23T12:40:53;7.07;;;6.50;;
9264;SDS011;4669;49.594;10.958;2022-07-23T12:45:57;8.52;;;6.82;;
9264;SDS011;4669;49.594;10.958;2022-07-23T12:51:05;8.35;;;6.93;;
9264;SDS011;4669;49.594;10.958;2022-07-23T12:56:10;6.68;;;6.05;;
9264;SDS011;4669;49.594;10.958;2022-07-23T13:01:22;6.90;;;6.30;;
9264;SDS011;4669;49.594;10.958;2022-07-23T13:06:26;10.25;;;7.13;;
9264;SDS011;4669;49.594;10.958;2022-07-23T13:11:31;10.85;;;6.55;;
9264;SDS011;4669;49.594;10.958;2022-07-23T13:16:33;6.85;;;6.25;;
9264;SDS011;4669;49.594;10.958;2022-07-23T13:21:35;6.65;;;6.00;;
9264;SDS011;4669;49.594;10.958;2022-07-23T13:26:38;7.55;;;6.32;;
9264;SDS011;4669;49.594;10.958;2022-07-23T13:31:41;7.20;;;6.60;;
9264;SDS011;4669;49.594;10.958;2022-07-23T13:36:43;9.48;;;6.45;;
9264;SDS011;4669;49.594;10.958;2022-07-23T13:41:46;7.15;;;6.35;;
9264;SDS011;4669;49.594;10.958;2022-07-23T13:46:49;7.50;;;5.72;;
9264;SDS011;4669;49.594;10.958;2022-07-23T13:51:51;6.72;;;6.13;;
9264;SDS011;4669;49.594;10.958;2022-07-23T13:56:54;6.50;;;6.00;;
9264;SDS011;4669;49.594;10.958;2022-07-23T14:01:56;6.65;;;6.03;;
9264;SDS011;4669;49.594;10.958;2022-07-23T14:06:58;8.05;;;6.72;;
9264;SDS011;4669;49.594;10.958;2022-07-23T14:12:02;7.90;;;6.70;;
9264;SDS011;4669;49.594;10.958;2022-07-23T14:17:05;7.10;;;6.50;;
9264;SDS011;4669;49.594;10.958;2022-07-23T14:22:07;7.65;;;6.90;;
9264;SDS011;4669;49.594;10.958;2022-07-23T14:27:10;9.98;;;6.70;;
9264;SDS011;4669;49.594;10.958;2022-07-23T14:32:12;6.50;;;5.80;;
9264;SDS011;4669;49.594;10.958;2022-07-23T14:37:15;6.63;;;6.03;;
9264;SDS011;4669;49.594;10.958;2022-07-23T14:42:18;7.35;;;6.57;;
9264;SDS011;4669;49.594;10.958;2022-07-23T14:47:20;6.25;;;5.65;;
9264;SDS011;4669;49.594;10.958;2022-07-23T14:52:22;6.22;;;5.65;;
9264;SDS011;4669;49.594;10.958;2022-07-23T14:57:26;7.00;;;5.93;;
9264;SDS011;4669;49.594;10.958;2022-07-23T15:02:28;9.55;;;5.68;;
9264;SDS011;4669;49.594;10.958;2022-07-23T15:07:30;8.48;;;7.28;;
9264;SDS011;4669;49.594;10.958;2022-07-23T15:12:33;7.78;;;7.03;;
9264;SDS011;4669;49.594;10.958;2022-07-23T15:17:35;7.05;;;5.80;;
9264;SDS011;4669;49.594;10.958;2022-07-23T15:22:39;7.22;;;5.88;;
9264;SDS011;4669;49.594;10.958;2022-07-23T15:27:42;6.60;;;6.00;;
9264;SDS011;4669;49.594;10.958;2022-07-23T15:32:44;6.03;;;5.43;;
9264;SDS011;4669;49.594;10.958;2022-07-23T15:37:46;5.60;;;5.20;;
9264;SDS011;4669;49.594;10.958;2022-07-23T15:42:50;7.40;;;6.20;;
9264;SDS011;4669;49.594;10.958;2022-07-23T15:47:52;6.68;;;6.07;;
9264;SDS011;4669;49.594;10.958;2022-07-23T15:52:55;6.40;;;5.90;;
9264;SDS011;4669;49.594;10.958;2022-07-23T15:57:59;6.82;;;6.20;;
9264;SDS011;4669;49.594;10.958;2022-07-23T16:03:01;6.82;;;5.45;;
9264;SDS011;4669;49.594;10.958;2022-07-23T16:08:04;6.32;;;5.75;;
9264;SDS011;4669;49.594;10.958;2022-07-23T16:13:08;7.43;;;6.15;;
9264;SDS011;4669;49.594;10.958;2022-07-23T16:18:10;7.40;;;5.78;;
9264;SDS011;4669;49.594;10.958;2022-07-23T16:23:12;6.68;;;5.65;;
9264;SDS011;4669;49.594;10.958;2022-07-23T16:28:16;9.15;;;5.57;;
9264;SDS011;4669;49.594;10.958;2022-07-23T16:33:18;7.50;;;5.47;;
9264;SDS011;4669;49.594;10.958;2022-07-23T16:38:20;6.45;;;5.10;;
9264;SDS011;4669;49.594;10.958;2022-07-23T16:43:23;6.05;;;5.45;;
9264;SDS011;4669;49.594;10.958;2022-07-23T16:48:27;5.55;;;5.03;;
9264;SDS011;4669;49.594;10.958;2022-07-23T16:53:29;7.07;;;5.45;;
9264;SDS011;4669;49.594;10.958;2022-07-23T16:58:32;7.75;;;5.75;;
9264;SDS011;4669;49.594;10.958;2022-07-23T17:03:35;6.45;;;5.70;;
9264;SDS011;4669;49.594;10.958;2022-07-23T17:08:37;7.20;;;5.38;;
9264;SDS011;4669;49.594;10.958;2022-07-23T17:13:41;9.52;;;6.30;;
9264;SDS011;4669;49.594;10.958;2022-07-23T17:18:43;10.10;;;9.13;;
9264;SDS011;4669;49.594;10.958;2022-07-23T17:23:45;7.55;;;5.78;;
9264;SDS011;4669;49.594;10.958;2022-07-23T17:28:48;6.63;;;5.97;;
9264;SDS011;4669;49.594;10.958;2022-07-23T17:33:50;6.72;;;5.80;;
9264;SDS011;4669;49.594;10.958;2022-07-23T17:38:52;6.05;;;5.55;;
9264;SDS011;4669;49.594;10.958;2022-07-23T17:43:56;6.95;;;5.82;;
9264;SDS011;4669;49.594;10.958;2022-07-23T17:48:59;5.97;;;5.38;;
9264;SDS011;4669;49.594;10.958;2022-07-23T17:54:01;5.93;;;5.38;;
9264;SDS011;4669;49.594;10.958;2022-07-23T17:59:05;5.90;;;5.30;;
9264;SDS011;4669;49.594;10.958;2022-07-23T18:04:08;6.53;;;5.93;;
9264;SDS011;4669;49.594;10.958;2022-07-23T18:09:13;6.18;;;5.65;;
9264;SDS011;4669;49.594;10.958;2022-07-23T18:14:16;5.18;;;4.78;;
9264;SDS011;4669;49.594;10.958;2022-07-23T18:19:19;5.50;;;5.05;;
9264;SDS011;4669;49.594;10.958;2022-07-23T18:24:21;5.35;;;4.80;;
9264;SDS011;4669;49.594;10.958;2022-07-23T18:29:26;5.80;;;4.63;;
9264;SDS011;4669;49.594;10.958;2022-07-23T18:34:28;6.03;;;5.13;;
9264;SDS011;4669;49.594;10.958;2022-07-23T18:39:30;5.55;;;5.10;;
9264;SDS011;4669;49.594;10.958;2022-07-23T18:44:36;7.40;;;5.70;;
9264;SDS011;4669;49.594;10.958;2022-07-23T18:49:38;5.57;;;4.80;;
9264;SDS011;4669;49.594;10.958;2022-07-23T18:54:41;12.70;;;11.50;;
9264;SDS011;4669;49.594;10.958;2022-07-23T18:59:44;7.18;;;5.63;;
9264;SDS011;4669;49.594;10.958;2022-07-23T19:04:46;5.88;;;5.40;;
9264;SDS011;4669;49.594;10.958;2022-07-23T19:09:48;5.72;;;5.22;;
9264;SDS011;4669;49.594;10.958;2022-07-23T19:14:52;6.13;;;5.63;;
9264;SDS011;4669;49.594;10.958;2022-07-23T19:19:54;7.32;;;6.18;;
9264;SDS011;4669;49.594;10.958;2022-07-23T19:24:56;7.03;;;6.32;;
9264;SDS011;4669;49.594;10.958;2022-07-23T19:29:59;7.82;;;7.07;;
9264;SDS011;4669;49.594;10.958;2022-07-23T19:35:01;7.03;;;6.32;;
9264;SDS011;4669;49.594;10.958;2022-07-23T19:40:04;8.55;;;7.75;;
9264;SDS011;4669;49.594;10.958;2022-07-23T19:45:09;8.02;;;7.30;;
9264;SDS011;4669;49.594;10.958;2022-07-23T19:50:11;8.25;;;7.47;;
9264;SDS011;4669;49.594;10.958;2022-07-23T19:55:14;9.13;;;8.20;;
9264;SDS011;4669;49.594;10.958;2022-07-23T20:00:18;8.18;;;7.22;;
9264;SDS011;4669;49.594;10.958;2022-07-23T20:05:21;8.48;;;7.60;;
9264;SDS011;4669;49.594;10.958;2022-07-23T20:10:23;9.35;;;7.68;;
9264;SDS011;4669;49.594;10.958;2022-07-23T20:15:26;8.18;;;7.40;;
9264;SDS011;4669;49.594;10.958;2022-07-23T20:20:29;8.77;;;7.82;;
9264;SDS011;4669;49.594;10.958;2022-07-23T20:25:31;8.88;;;8.07;;
9264;SDS011;4669;49.594;10.958;2022-07-23T20:30:34;9.68;;;8.80;;
9264;SDS011;4669;49.594;10.958;2022-07-23T20:35:36;9.90;;;8.98;;
9264;SDS011;4669;49.594;10.958;2022-07-23T20:40:38;9.75;;;8.75;;
9264;SDS011;4669;49.594;10.958;2022-07-23T20:45:42;10.50;;;9.50;;
9264;SDS011;4669;49.594;10.958;2022-07-23T20:50:44;11.15;;;10.07;;
9264;SDS011;4669;49.594;10.958;2022-07-23T20:55:48;10.38;;;9.48;;
9264;SDS011;4669;49.594;10.958;2022-07-23T21:00:52;10.20;;;9.15;;
9264;SDS011;4669;49.594;10.958;2022-07-23T21:05:54;11.68;;;9.82;;
9264;SDS011;4669;49.594;10.958;2022-07-23T21:10:56;12.05;;;10.43;;
9264;SDS011;4669;49.594;10.958;2022-07-23T21:15:59;14.70;;;10.77;;
9264;SDS011;4669;49.594;10.958;2022-07-23T21:21:01;11.30;;;10.20;;
9264;SDS011;4669;49.594;10.958;2022-07-23T21:26:11;12.35;;;10.35;;
9264;SDS011;4669;49.594;10.958;2022-07-23T21:31:16;10.15;;;9.18;;
9264;SDS011;4669;49.594;10.958;2022-07-23T21:36:18;9.95;;;9.05;;
9264;SDS011;4669;49.594;10.958;2022-07-23T21:41:20;10.00;;;9.02;;
9264;SDS011;4669;49.594;10.958;2022-07-23T21:46:23;7.70;;;7.00;;
9264;SDS011;4669;49.594;10.958;2022-07-23T21:51:25;8.48;;;7.78;;
9264;SDS011;4669;49.594;10.958;2022-07-23T21:56:29;8.13;;;7.40;;
9264;SDS011;4669;49.594;10.958;2022-07-23T22:01:32;10.13;;;8.02;;
9264;SDS011;4669;49.594;10.958;2022-07-23T22:06:34;8.55;;;7.75;;
9264;SDS011;4669;49.594;10.958;2022-07-23T22:11:36;7.85;;;7.25;;
9264;SDS011;4669;49.594;10.958;2022-07-23T22:16:39;8.80;;;7.88;;
9264;SDS011;4669;49.594;10.958;2022-07-23T22:21:41;8.20;;;7.55;;
9264;SDS011;4669;49.594;10.958;2022-07-23T22:26:44;7.72;;;7.05;;
9264;SDS011;4669;49.594;10.958;2022-07-23T22:31:48;8.45;;;7.75;;
9264;SDS011;4669;49.594;10.958;2022-07-23T22:36:50;8.68;;;7.88;;
9264;SDS011;4669;49.594;10.958;2022-07-23T22:41:52;9.02;;;8.13;;
9264;SDS011;4669;49.594;10.958;2022-07-23T22:46:56;9.25;;;7.78;;
9264;SDS011;4669;49.594;10.958;2022-07-23T22:51:58;9.38;;;8.50;;
9264;SDS011;4669;49.594;10.958;2022-07-23T22:57:00;9.60;;;8.63;;
9264;SDS011;4669;49.594;10.958;2022-07-23T23:02:03;13.77;;;8.60;;
9264;SDS011;4669;49.594;10.958;2022-07-23T23:07:05;10.52;;;9.10;;
9264;SDS011;4669;49.594;10.958;2022-07-23T23:12:07;12.77;;;9.23;;
9264;SDS011;4669;49.594;10.958;2022-07-23T23:17:11;8.93;;;8.20;;
9264;SDS011;4669;49.594;10.958;2022-07-23T23:22:13;10.00;;;8.98;;
9264;SDS011;4669;49.594;10.958;2022-07-23T23:27:15;10.13;;;9.13;;
9264;SDS011;4669;49.594;10.958;2022-07-23T23:32:18;9.80;;;8.98;;
9264;SDS011;4669;49.594;10.958;2022-07-23T23:37:20;10.73;;;9.63;;
9264;SDS011;4669;49.594;10.958;2022-07-23T23:42:22;10.57;;;9.68;;
9264;SDS011;4669;49.594;10.958;2022-07-23T23:47:26;10.18;;;9.35;;
9264;SDS011;4669;49.594;10.958;2022-07-23T23:52:28;9.93;;;9.02;;
9264;SDS011;4669;49.594;10.958;2022-07-23T23:57:30;10.02;;;9.07;;
